Algonquin Park, Canada
Current Conditions -  °F | °C
As of 3:27 AM on Monday 24 Nov 2014 (Local Time) from CYQA Reporting Station
Moderate Rain Moderate Rain  
Wind Chill: 35°   Ceiling: 1000
Heat Index: 41°   Visibility: 2.2mi
Dew Point: 41°   Wind: 9mph
Humidity: 100%   Direction: 120°ESE
Pressure: 29.3"   Gusts: 21mph
Location:  45.56°N, 78.59°W
Report Text: CYQA 240827Z AUTO 12008G18KT 070V150 2 1/4SM RA BR BKN010 BKN014 OVC023 05/05 A2930 RMK PRESFR PCPN 2.8MM PAST HR SLP930
Loading
Personal Weather Stations






























Interactive Weather Map New forecast layout! Learn more

10-Day Weather Forecast

Advertisements
Track Severe Weather on mobile